Aérodrome :
LOGIN :

S'inscrire | Disclaimer

   EN    FR    IT 

 










Légende :    VFR   VFR Marginal   IFR   IFR Intensif   IFR Très Intensif
Visi : 
Plafond : 
>= 8 km
>= 3000ft
5 à 8 km
1000 à 3000 ft
1500m à 5 km
500 à 1000 ft
800 à 1500m
200 à 500 ft
< 800m
< 200 ft
Symboles :   Orages  Brouillard  Fortes neiges  Fortes précipitations  Vent > 20 kt
SIGMETs :   Divers  Orages  Givrage  Turbulence  Onde Orograph.  Cendres Volcan.







- Altitude de l'aérodrome : 1046 ft
- Code IATA : NUE


EDDN - Nuremberg

DERNIER METAR :
  • 170720Z VRB01KT CAVOK 22/13 Q1015 NOSIG

METARs EXPIRÉS :
  • 170650Z VRB01KT CAVOK 20/14 Q1015 NOSIG
  • 170620Z VRB01KT CAVOK 19/14 Q1015 NOSIG
  • 170550Z 12003KT 090V170 CAVOK 17/13 Q1015 NOSIG
  • 170520Z 10003KT 060V120 CAVOK 16/13 Q1015 NOSIG
  • 170450Z 10004KT CAVOK 14/12 Q1015 NOSIG

TAF TAF EDDN
Valide du 17 à 06h jusqu'au 18 à 06h UTC


170500Z 1706/1806 VRB03KT CAVOK
BECMG 1706/1708 29005KT
BECMG 1710/1712 29010KT
BECMG 1718/1720 29003KT
Pas de NOTAMs connus pour ce terrain.



MET'MAP, la Météo Aéronautique d'un coup d'oeil ! - Copyright ORBIFLY Décembre 2007 - Disclaimer

ORBIFLY MET'MAP TEAM :

Programmation & Développement : Alexandra Zaïnal
Conception & Développement : Baudouin d'Aumeries
Co-Programmation & Développement : Marc-Olivier Méhu
Soutien technique & logistique : Manuel Goepfert

Contact : metmap@orbifly.com




SOURCES & CREDITS :

   NOAA